Portada
METAR-TAF:

METAR-TAF

Aeropuertos :

Oslo, Noruega

Aeropuerto de Oslo-Gardermoen

latitud: 60-12N, longitud: 011-05E, altitud: 208 m

Observación

El informe se hizo hace 25 minutos, a las 23:50 UTC
Viento 5 kt del noreste
Temperatura 11°C
Humedad 82%
Presión 1036 hPa
Visibilidad 10 km o más
Cielo nuboso a una altura de 1600 ft

METAR: ENGM 252350Z 04005KT 9999 BKN016 11/08 Q1036

Hora: 02:15 (00:15 UTC)

Pronóstico

Pronóstico válido del 26 a las 00 UTC al 26 a las 24 UTC
Viento 8 kt del noreste
Visibilidad 10 km o más
Nubes dispersas a una altura de 2000 ft
Cielo nuboso a una altura de 3000 ft
Probabilidad 40%
del 26 a las 02 UTC al 26 a las 09 UTC
Cielo nuboso a una altura de 800 ft

TAF: ENGM 2600/2624 04008KT 9999 SCT020 BKN030 PROB40 2602/2609 BKN008

Observaciones y pronósticos meteorológicos de más de 4000 aeropuertos (mensajes METAR y TAF).

Los puntos amarillos y rojos representan las estaciones disponibles.

Ponga el ratón en el punto deseado para ver el nombre de la estación.

Haga clic para ver las observaciones y los pronósticos meteorológicos.

Para cambiar el mapa : haga clic en los botones verdes con una cruz de color negro para hacer un zoom, en el botón verde con un guión para alejar o en las flechas verdes para mapas adyacentes.


METAR-TAF: